Time;durP1;ratioP1;P1;durP2;ratioP2;P2;SDS_P1;SDS_P2;PMS_P1;PMS_P2;Temp;Humidity;BMP_temperature;BMP_pressure;BME280_temperature;BME280_humidity;BME280_pressure;Samples;Min_cycle;Max_cycle;Signal;HPM_P1;HPM_P2
2021/12/03 00:00:17;;;;;;;14.30;9.90;;;5.20;80.90;;;;;;4994260;28;20206;-70
2021/12/03 00:02:45;;;;;;;17.63;11.05;;;5.20;81.00;;;;;;4995968;28;20229;-71
2021/12/03 00:05:13;;;;;;;16.52;9.57;;;5.20;81.00;;;;;;4995678;28;20225;-71
2021/12/03 00:07:43;;;;;;;20.38;10.15;;;5.20;80.90;;;;;;4994615;28;20217;-71
2021/12/03 00:10:13;;;;;;;19.40;11.10;;;5.20;80.80;;;;;;4996131;28;20492;-71
2021/12/03 00:12:42;;;;;;;16.80;11.02;;;5.20;80.90;;;;;;4996039;28;20189;-71
2021/12/03 00:15:12;;;;;;;15.95;10.55;;;5.20;81.00;;;;;;4995389;28;20276;-71
2021/12/03 00:17:40;;;;;;;16.00;10.10;;;5.20;81.00;;;;;;4995373;28;20221;-71
2021/12/03 00:20:11;;;;;;;17.88;10.63;;;5.20;80.90;;;;;;4996204;28;20206;-71
2021/12/03 00:22:39;;;;;;;17.15;11.55;;;5.20;81.00;;;;;;4994102;28;20276;-71
2021/12/03 00:25:09;;;;;;;15.63;10.18;;;5.20;81.00;;;;;;5000875;28;20232;-71
2021/12/03 00:27:38;;;;;;;15.15;9.98;;;5.20;80.80;;;;;;4992225;28;20210;-71
2021/12/03 00:30:09;;;;;;;18.00;10.57;;;5.20;80.80;;;;;;4994069;28;20212;-71
2021/12/03 00:32:37;;;;;;;16.02;9.65;;;5.10;80.80;;;;;;4994502;28;20213;-71
2021/12/03 00:35:06;;;;;;;16.40;10.23;;;5.10;80.70;;;;;;4994989;28;20354;-71
2021/12/03 00:37:35;;;;;;;15.30;9.85;;;5.10;80.80;;;;;;4998308;28;20214;-71
2021/12/03 00:40:03;;;;;;;19.10;10.73;;;5.10;80.80;;;;;;4997634;28;20198;-71
2021/12/03 00:42:33;;;;;;;14.00;9.50;;;5.00;80.80;;;;;;4996799;28;20663;-71
2021/12/03 00:45:02;;;;;;;14.35;9.15;;;5.00;80.80;;;;;;4996125;28;20229;-71
2021/12/03 00:47:30;;;;;;;15.48;10.27;;;5.00;80.90;;;;;;5001020;28;20718;-73
2021/12/03 00:49:58;;;;;;;14.27;9.57;;;5.00;80.80;;;;;;5001372;28;21124;-73
2021/12/03 00:52:26;;;;;;;16.38;10.35;;;5.00;80.80;;;;;;4999030;28;20205;-71
2021/12/03 00:54:54;;;;;;;16.17;9.88;;;5.00;81.00;;;;;;4997243;28;21015;-71
2021/12/03 00:57:22;;;;;;;13.02;9.50;;;5.00;81.10;;;;;;5000505;28;20701;-70
2021/12/03 00:59:51;;;;;;;16.52;10.05;;;5.10;81.00;;;;;;5000500;28;20232;-71
2021/12/03 01:02:19;;;;;;;14.43;9.90;;;5.10;81.00;;;;;;5018921;28;20255;-71
2021/12/03 01:04:47;;;;;;;14.15;10.07;;;5.10;80.80;;;;;;5019898;28;20264;-70
2021/12/03 01:07:15;;;;;;;17.25;9.70;;;5.10;80.80;;;;;;5018349;28;20701;-71
2021/12/03 01:09:44;;;;;;;15.40;9.85;;;5.10;80.80;;;;;;5021522;28;20276;-72
2021/12/03 01:12:13;;;;;;;15.45;10.45;;;5.10;80.90;;;;;;5021165;28;20306;-71
2021/12/03 01:14:41;;;;;;;16.48;10.05;;;5.10;80.80;;;;;;5022975;28;20453;-71
2021/12/03 01:17:10;;;;;;;19.00;10.95;;;5.10;80.80;;;;;;5021104;28;20304;-72
2021/12/03 01:19:38;;;;;;;17.77;10.65;;;5.10;80.90;;;;;;5013637;28;20682;-70
2021/12/03 01:22:06;;;;;;;19.40;12.82;;;5.10;80.80;;;;;;5020408;28;20816;-70
2021/12/03 01:24:34;;;;;;;17.00;11.27;;;5.10;80.70;;;;;;5019988;28;20274;-71
2021/12/03 01:27:03;;;;;;;19.85;12.07;;;5.00;80.50;;;;;;5022797;28;20264;-70
2021/12/03 01:29:31;;;;;;;22.75;12.35;;;5.00;80.60;;;;;;5025636;28;20239;-71
2021/12/03 01:31:59;;;;;;;19.95;13.20;;;5.00;80.80;;;;;;5026845;28;20717;-71
2021/12/03 01:34:29;;;;;;;18.55;12.00;;;5.00;80.80;;;;;;5026757;28;20200;-71
2021/12/03 01:36:57;;;;;;;19.10;11.07;;;5.00;80.80;;;;;;5018767;28;20416;-71
2021/12/03 01:39:25;;;;;;;19.50;12.05;;;5.00;80.70;;;;;;5022458;28;20197;-71
2021/12/03 01:41:52;;;;;;;17.73;11.20;;;5.00;80.60;;;;;;5018424;28;20208;-73
2021/12/03 01:44:20;;;;;;;20.35;11.88;;;5.00;80.70;;;;;;5020804;28;20219;-72
2021/12/03 01:46:48;;;;;;;19.02;11.73;;;5.00;80.70;;;;;;5018885;28;20745;-70
2021/12/03 01:49:16;;;;;;;19.30;12.38;;;5.00;80.70;;;;;;5017008;28;20314;-69
2021/12/03 01:51:46;;;;;;;15.57;10.45;;;5.00;80.70;;;;;;5019811;28;20467;-71
2021/12/03 01:54:14;;;;;;;16.10;11.32;;;5.00;80.60;;;;;;5021136;28;20210;-71
2021/12/03 01:56:42;;;;;;;18.30;10.95;;;5.00;80.60;;;;;;5016724;28;20351;-70
2021/12/03 01:59:11;;;;;;;15.00;10.55;;;5.00;80.70;;;;;;5016818;28;20285;-70
2021/12/03 02:01:39;;;;;;;17.48;10.30;;;5.00;80.50;;;;;;5017240;28;20299;-71
2021/12/03 02:04:08;;;;;;;17.63;12.02;;;4.90;80.50;;;;;;5019996;28;20204;-70
2021/12/03 02:06:37;;;;;;;16.00;11.00;;;4.90;80.40;;;;;;5014972;28;20738;-70
2021/12/03 02:09:08;;;;;;;17.10;11.85;;;4.90;80.60;;;;;;5022146;28;20209;-70
2021/12/03 02:11:36;;;;;;;18.27;11.80;;;4.90;80.60;;;;;;5016369;28;20196;-70
2021/12/03 02:14:06;;;;;;;15.80;10.77;;;4.90;80.50;;;;;;5020775;28;20984;-70
2021/12/03 02:16:34;;;;;;;15.60;9.93;;;4.90;80.40;;;;;;5018232;28;20244;-70
2021/12/03 02:19:02;;;;;;;16.08;10.40;;;4.80;80.50;;;;;;5019916;28;20283;-71
2021/12/03 02:21:32;;;;;;;16.83;11.10;;;4.90;80.60;;;;;;5014814;28;20208;-70
2021/12/03 02:24:00;;;;;;;18.30;11.30;;;4.90;80.50;;;;;;5016063;28;20197;-72
2021/12/03 02:26:27;;;;;;;17.30;11.55;;;4.90;80.60;;;;;;5018393;28;20237;-72
2021/12/03 02:28:56;;;;;;;16.77;11.25;;;4.90;80.40;;;;;;5020584;28;20221;-71
2021/12/03 02:31:25;;;;;;;17.83;11.70;;;4.80;80.40;;;;;;5018602;28;20228;-71
2021/12/03 02:33:54;;;;;;;19.13;11.80;;;4.80;80.40;;;;;;5018308;28;20710;-70
2021/12/03 02:36:23;;;;;;;15.02;10.35;;;4.80;80.50;;;;;;5020603;28;20247;-73
2021/12/03 02:38:53;;;;;;;16.00;10.90;;;4.80;80.50;;;;;;5017898;28;20224;-71
2021/12/03 02:41:21;;;;;;;16.85;11.02;;;4.80;80.10;;;;;;5017204;28;20663;-70
2021/12/03 02:43:49;;;;;;;15.68;10.18;;;4.70;80.10;;;;;;5019421;28;20545;-70
2021/12/03 02:46:17;;;;;;;17.67;11.27;;;4.70;80.20;;;;;;5020940;28;20224;-70
2021/12/03 02:48:45;;;;;;;19.23;11.73;;;4.70;80.30;;;;;;5018806;28;20214;-70
2021/12/03 02:51:13;;;;;;;15.60;10.88;;;4.70;80.20;;;;;;5015739;28;21820;-70
2021/12/03 02:53:41;;;;;;;15.73;9.52;;;4.60;80.00;;;;;;5016853;28;20202;-70
2021/12/03 02:56:10;;;;;;;16.17;10.65;;;4.50;80.10;;;;;;5018664;28;20265;-70
2021/12/03 02:58:38;;;;;;;16.15;10.50;;;4.50;80.10;;;;;;5017244;28;20209;-72
2021/12/03 03:01:08;;;;;;;16.67;10.48;;;4.50;80.20;;;;;;5014931;28;20240;-72
2021/12/03 03:03:36;;;;;;;16.58;11.20;;;4.50;80.20;;;;;;5015812;28;20205;-72
2021/12/03 03:06:08;;;;;;;14.65;9.68;;;4.40;80.20;;;;;;5018292;28;20707;-70
2021/12/03 03:08:39;;;;;;;11.45;8.13;;;4.40;80.20;;;;;;5021662;28;20208;-71
2021/12/03 03:11:07;;;;;;;14.25;9.02;;;4.40;80.10;;;;;;5016973;28;20344;-71
2021/12/03 03:13:37;;;;;;;12.38;8.68;;;4.40;80.20;;;;;;5017427;28;20204;-72
2021/12/03 03:16:06;;;;;;;10.45;7.45;;;4.40;80.20;;;;;;5019602;28;20274;-73
2021/12/03 03:18:34;;;;;;;12.60;7.65;;;4.40;80.30;;;;;;5024678;28;20208;-71
2021/12/03 03:21:04;;;;;;;13.77;7.57;;;4.40;80.20;;;;;;5025503;28;20208;-73
2021/12/03 03:23:33;;;;;;;16.17;9.20;;;4.40;80.20;;;;;;5020822;28;20590;-73
2021/12/03 03:26:01;;;;;;;13.25;7.60;;;4.40;80.20;;;;;;5019336;28;20280;-69
2021/12/03 03:28:30;;;;;;;16.15;8.40;;;4.40;80.10;;;;;;5026029;28;20883;-70
2021/12/03 03:31:00;;;;;;;11.02;7.70;;;4.30;80.00;;;;;;5016406;28;20237;-73
2021/12/03 03:33:29;;;;;;;14.98;8.18;;;4.30;80.00;;;;;;5020207;28;20846;-78
2021/12/03 03:35:57;;;;;;;11.90;7.82;;;4.30;80.10;;;;;;5021512;28;20225;-71
2021/12/03 03:38:25;;;;;;;10.10;6.63;;;4.30;80.10;;;;;;5025953;28;20209;-71
2021/12/03 03:40:54;;;;;;;10.40;7.00;;;4.20;79.90;;;;;;5024094;28;20267;-70
2021/12/03 03:43:23;;;;;;;11.00;6.88;;;4.20;80.00;;;;;;5020281;28;20298;-71
2021/12/03 03:45:51;;;;;;;9.77;6.50;;;4.20;80.10;;;;;;5017215;28;20220;-70
2021/12/03 03:48:21;;;;;;;8.05;5.88;;;4.20;80.10;;;;;;5012743;28;20209;-70
2021/12/03 03:50:49;;;;;;;10.30;6.28;;;4.30;80.10;;;;;;5019818;28;20244;-70
2021/12/03 03:53:18;;;;;;;11.40;6.80;;;4.30;80.10;;;;;;5020211;28;20201;-70
2021/12/03 03:55:46;;;;;;;11.38;7.38;;;4.30;80.10;;;;;;5016320;28;20232;-70
2021/12/03 03:58:14;;;;;;;9.25;6.43;;;4.30;80.00;;;;;;5017568;28;20198;-73
2021/12/03 04:00:45;;;;;;;11.43;7.18;;;4.30;80.00;;;;;;5018704;28;20729;-71
2021/12/03 04:03:14;;;;;;;12.95;7.38;;;4.30;80.00;;;;;;5020512;28;20739;-70
2021/12/03 04:05:44;;;;;;;8.85;6.05;;;4.40;80.10;;;;;;5021322;28;20769;-71
2021/12/03 04:08:12;;;;;;;10.50;6.82;;;4.40;80.10;;;;;;5025644;28;20195;-76
2021/12/03 04:10:41;;;;;;;10.70;7.05;;;4.40;79.90;;;;;;5022184;28;20468;-71
2021/12/03 04:13:09;;;;;;;12.82;7.55;;;4.40;79.80;;;;;;5022841;28;20275;-71
2021/12/03 04:15:38;;;;;;;11.20;7.20;;;4.40;79.80;;;;;;5021867;28;20286;-70
2021/12/03 04:18:06;;;;;;;18.27;7.57;;;4.30;79.80;;;;;;5022434;28;20288;-72
2021/12/03 04:20:36;;;;;;;10.63;7.45;;;4.30;79.80;;;;;;5022322;28;20205;-71
2021/12/03 04:23:05;;;;;;;11.02;7.45;;;4.40;79.90;;;;;;5021442;28;20307;-72
2021/12/03 04:25:34;;;;;;;10.98;7.47;;;4.40;79.90;;;;;;5021695;28;20315;-71
2021/12/03 04:28:03;;;;;;;11.63;7.65;;;4.40;79.80;;;;;;5021866;28;20248;-72
2021/12/03 04:30:31;;;;;;;13.35;8.02;;;4.40;79.70;;;;;;5021398;28;20228;-72
2021/12/03 04:32:59;;;;;;;12.68;7.82;;;4.40;79.70;;;;;;5022479;28;20202;-71
2021/12/03 04:35:28;;;;;;;13.38;8.05;;;4.30;79.60;;;;;;5032207;28;20217;-71
2021/12/03 04:37:57;;;;;;;12.60;8.73;;;4.30;79.80;;;;;;5028891;28;20199;-70
2021/12/03 04:40:27;;;;;;;12.45;8.25;;;4.30;79.80;;;;;;5027036;28;20212;-72
2021/12/03 04:42:56;;;;;;;14.48;8.27;;;4.30;79.60;;;;;;5027580;28;20602;-74
2021/12/03 04:45:26;;;;;;;12.10;8.25;;;4.30;79.70;;;;;;5023033;28;20236;-73
2021/12/03 04:47:55;;;;;;;16.25;8.13;;;4.30;79.60;;;;;;5022316;28;20981;-71
2021/12/03 04:50:25;;;;;;;12.65;8.35;;;4.20;79.60;;;;;;5022006;28;20217;-71
2021/12/03 04:52:54;;;;;;;13.73;7.88;;;4.20;79.60;;;;;;5021792;28;20209;-71
2021/12/03 04:55:24;;;;;;;11.77;7.70;;;4.20;79.80;;;;;;5022349;28;20696;-72
2021/12/03 04:57:54;;;;;;;10.68;7.45;;;4.20;79.70;;;;;;5018242;28;20196;-71
2021/12/03 05:00:27;;;;;;;10.15;7.35;;;4.20;79.60;;;;;;5018920;28;20666;-71
2021/12/03 05:02:55;;;;;;;14.00;8.13;;;4.20;79.60;;;;;;5017839;28;20741;-71
2021/12/03 05:05:26;;;;;;;13.65;8.18;;;4.20;79.60;;;;;;5021734;28;20241;-70
2021/12/03 05:07:57;;;;;;;11.85;7.85;;;4.20;79.70;;;;;;5020727;28;20206;-72
2021/12/03 05:10:26;;;;;;;13.05;9.15;;;4.20;79.60;;;;;;5024075;28;21037;-70
2021/12/03 05:12:59;;;;;;;12.55;8.05;;;4.20;79.40;;;;;;5020950;28;20200;-70
2021/12/03 05:15:31;;;;;;;13.60;8.15;;;4.20;79.60;;;;;;5020478;28;20582;-70
2021/12/03 05:18:00;;;;;;;12.75;8.32;;;4.20;79.50;;;;;;5017310;28;20216;-72
2021/12/03 05:20:29;;;;;;;13.40;8.63;;;4.20;79.50;;;;;;5025623;28;20201;-73
2021/12/03 05:22:57;;;;;;;11.50;8.15;;;4.20;79.50;;;;;;5023874;28;20209;-71
2021/12/03 05:25:25;;;;;;;11.00;7.25;;;4.20;79.30;;;;;;5019685;28;20216;-70
2021/12/03 05:27:54;;;;;;;10.90;7.18;;;4.20;79.40;;;;;;5019518;28;20197;-71
2021/12/03 05:30:24;;;;;;;12.85;8.00;;;4.20;79.30;;;;;;5019649;28;20220;-70
2021/12/03 05:32:52;;;;;;;10.88;7.35;;;4.10;79.40;;;;;;5017251;28;20736;-71
2021/12/03 05:35:21;;;;;;;11.27;7.78;;;4.20;79.40;;;;;;5018796;28;20252;-71
2021/12/03 05:37:49;;;;;;;10.98;7.15;;;4.20;79.50;;;;;;5013239;28;20202;-70
2021/12/03 05:40:18;;;;;;;14.23;7.65;;;4.20;79.40;;;;;;5018035;28;20202;-70
2021/12/03 05:42:47;;;;;;;12.90;8.02;;;4.20;79.30;;;;;;5013635;28;20213;-70
2021/12/03 05:45:17;;;;;;;12.30;8.88;;;4.10;79.10;;;;;;5016005;28;20216;-70
2021/12/03 05:47:47;;;;;;;13.60;8.95;;;4.10;79.00;;;;;;5017631;28;20197;-70
2021/12/03 05:50:16;;;;;;;12.95;9.13;;;4.10;79.20;;;;;;5019826;28;20216;-70
2021/12/03 05:52:44;;;;;;;12.15;8.50;;;4.10;79.20;;;;;;5020148;28;20189;-70
2021/12/03 05:55:13;;;;;;;14.68;8.88;;;4.10;79.20;;;;;;5016054;28;20229;-70
2021/12/03 05:57:42;;;;;;;12.73;7.68;;;4.10;79.10;;;;;;5016763;28;20209;-70
2021/12/03 06:00:14;;;;;;;15.55;9.90;;;4.00;79.00;;;;;;5018241;28;21571;-70
2021/12/03 06:02:43;;;;;;;15.90;9.52;;;4.00;78.90;;;;;;5015783;28;20205;-70
2021/12/03 06:05:13;;;;;;;17.00;10.35;;;4.00;78.90;;;;;;5016657;28;20237;-69
2021/12/03 06:07:41;;;;;;;14.35;9.95;;;3.90;79.00;;;;;;5029819;28;20212;-70
2021/12/03 06:10:09;;;;;;;14.52;9.63;;;3.90;79.00;;;;;;5015424;28;20196;-70
2021/12/03 06:12:42;;;;;;;15.48;9.13;;;3.90;79.00;;;;;;5019097;28;20264;-72
2021/12/03 06:15:10;;;;;;;15.32;10.75;;;3.80;78.80;;;;;;5018862;28;20222;-71
2021/12/03 06:17:38;;;;;;;14.57;8.90;;;3.80;78.80;;;;;;5016320;28;20193;-71
2021/12/03 06:20:08;;;;;;;14.75;9.40;;;3.80;78.70;;;;;;5018766;28;20240;-69
2021/12/03 06:22:38;;;;;;;13.93;9.02;;;3.70;78.80;;;;;;5019408;28;20268;-69
2021/12/03 06:25:07;;;;;;;14.00;9.35;;;3.70;78.70;;;;;;5018854;28;20231;-70
2021/12/03 06:27:36;;;;;;;13.13;8.80;;;3.60;78.60;;;;;;5018196;28;20204;-70
2021/12/03 06:30:07;;;;;;;19.80;9.15;;;3.60;78.70;;;;;;5019212;28;20573;-72
2021/12/03 06:32:35;;;;;;;17.10;10.40;;;3.50;78.80;;;;;;5017298;28;20236;-70
2021/12/03 06:35:05;;;;;;;12.07;8.75;;;3.50;78.80;;;;;;5020499;28;20725;-70
2021/12/03 06:37:33;;;;;;;13.50;8.70;;;3.50;78.90;;;;;;5020172;28;20799;-70
2021/12/03 06:40:03;;;;;;;15.20;9.70;;;3.50;78.90;;;;;;5018940;28;20212;-70
2021/12/03 06:42:31;;;;;;;18.33;9.13;;;3.50;78.90;;;;;;5017920;28;20651;-70
2021/12/03 06:44:59;;;;;;;16.00;10.27;;;3.50;78.80;;;;;;5018817;28;20305;-70
2021/12/03 06:47:27;;;;;;;13.02;8.95;;;3.50;78.80;;;;;;5018909;28;20676;-70
2021/12/03 06:49:55;;;;;;;13.27;8.98;;;3.50;78.70;;;;;;5019688;28;20272;-70
2021/12/03 06:52:23;;;;;;;12.75;8.63;;;3.50;78.70;;;;;;5034747;28;20228;-70
2021/12/03 06:54:56;;;;;;;13.35;9.10;;;3.50;78.60;;;;;;5021937;28;20806;-70
2021/12/03 06:57:26;;;;;;;15.93;9.88;;;3.40;78.60;;;;;;5024787;28;20270;-69
2021/12/03 06:59:53;;;;;;;12.93;8.75;;;3.40;78.70;;;;;;5022079;28;20205;-72
2021/12/03 07:02:22;;;;;;;14.00;8.73;;;3.40;78.70;;;;;;5020964;28;20252;-72
2021/12/03 07:04:50;;;;;;;12.85;9.20;;;3.40;78.60;;;;;;5014089;28;20241;-71
2021/12/03 07:07:18;;;;;;;13.40;8.57;;;3.40;78.50;;;;;;5022112;28;20212;-70
2021/12/03 07:09:48;;;;;;;13.65;8.85;;;3.30;78.50;;;;;;5020537;28;20196;-70
2021/12/03 07:12:16;;;;;;;15.15;8.68;;;3.30;78.50;;;;;;5023705;28;20890;-72
2021/12/03 07:14:45;;;;;;;16.55;8.52;;;3.30;78.50;;;;;;5018387;28;20693;-72
2021/12/03 07:17:13;;;;;;;15.02;8.82;;;3.30;78.50;;;;;;5021494;28;20342;-72
2021/12/03 07:19:41;;;;;;;12.55;8.48;;;3.30;78.70;;;;;;5019579;28;20200;-72
2021/12/03 07:22:09;;;;;;;14.45;7.97;;;3.30;78.60;;;;;;5020631;28;20637;-72
2021/12/03 07:24:37;;;;;;;12.15;7.15;;;3.40;78.70;;;;;;5019945;28;20665;-71
2021/12/03 07:27:05;;;;;;;12.88;8.05;;;3.40;78.60;;;;;;5017229;28;20204;-70
2021/12/03 07:29:33;;;;;;;13.25;7.25;;;3.40;78.50;;;;;;5020441;28;20557;-72
2021/12/03 07:32:03;;;;;;;15.07;9.02;;;3.40;78.50;;;;;;5023315;28;20229;-72
2021/12/03 07:34:32;;;;;;;12.75;8.20;;;3.40;78.60;;;;;;5020670;28;20309;-72
2021/12/03 07:36:59;;;;;;;12.93;8.40;;;3.50;78.60;;;;;;5015864;28;20251;-72
2021/12/03 07:39:27;;;;;;;15.27;10.18;;;3.50;78.70;;;;;;5018047;28;20197;-72
2021/12/03 07:41:55;;;;;;;15.98;9.07;;;3.50;78.40;;;;;;5020061;28;20232;-70
2021/12/03 07:44:23;;;;;;;14.07;9.73;;;3.50;78.20;;;;;;5020505;28;21316;-70
2021/12/03 07:46:51;;;;;;;13.45;9.15;;;3.50;78.20;;;;;;5017303;28;20230;-70
2021/12/03 07:49:22;;;;;;;13.35;8.77;;;3.50;78.30;;;;;;5023267;28;20201;-70
2021/12/03 07:51:50;;;;;;;13.68;8.77;;;3.50;78.20;;;;;;5018074;28;20259;-70
2021/12/03 07:54:18;;;;;;;15.45;9.50;;;3.50;78.30;;;;;;5018894;28;20213;-70
2021/12/03 07:56:47;;;;;;;13.18;9.05;;;3.50;78.30;;;;;;5022183;28;20230;-70
2021/12/03 07:59:15;;;;;;;13.73;7.85;;;3.50;78.20;;;;;;5020997;28;20699;-70
2021/12/03 08:01:43;;;;;;;14.05;9.20;;;3.50;78.20;;;;;;5018176;28;20855;-70
2021/12/03 08:04:13;;;;;;;13.43;9.25;;;3.50;78.20;;;;;;5016609;28;20209;-69
2021/12/03 08:06:44;;;;;;;13.82;9.93;;;3.50;78.30;;;;;;5018503;28;20233;-70
2021/12/03 08:09:12;;;;;;;18.35;10.43;;;3.50;78.20;;;;;;5018329;28;20201;-70
2021/12/03 08:11:40;;;;;;;17.27;10.60;;;3.50;78.00;;;;;;5013998;28;21216;-70
2021/12/03 08:14:08;;;;;;;20.73;12.68;;;3.50;77.90;;;;;;5018718;28;20212;-70
2021/12/03 08:16:36;;;;;;;18.38;12.88;;;3.50;78.00;;;;;;5018425;28;20248;-70
2021/12/03 08:19:04;;;;;;;20.92;13.07;;;3.50;77.90;;;;;;5016418;28;20694;-70
2021/12/03 08:21:32;;;;;;;21.23;12.93;;;3.40;77.80;;;;;;5018597;28;20212;-70
2021/12/03 08:24:01;;;;;;;23.42;12.85;;;3.40;77.90;;;;;;5018136;28;20504;-70
2021/12/03 08:26:30;;;;;;;20.63;12.50;;;3.40;78.00;;;;;;5020982;28;20248;-70
2021/12/03 08:28:58;;;;;;;17.58;11.38;;;3.40;78.10;;;;;;5020428;28;20914;-70
2021/12/03 08:31:26;;;;;;;19.10;12.70;;;3.50;78.10;;;;;;5019818;28;20240;-70
2021/12/03 08:33:55;;;;;;;21.20;13.35;;;3.50;78.00;;;;;;5021991;28;20282;-70
2021/12/03 08:36:23;;;;;;;19.75;12.70;;;3.50;78.00;;;;;;5017702;28;20248;-70
2021/12/03 08:38:51;;;;;;;24.67;14.75;;;3.50;77.90;;;;;;5020050;28;20208;-70
2021/12/03 08:41:20;;;;;;;21.20;12.38;;;3.50;78.00;;;;;;5023840;28;20615;-70
2021/12/03 08:43:49;;;;;;;19.65;12.95;;;3.40;78.00;;;;;;5013465;28;20675;-70
2021/12/03 08:46:21;;;;;;;20.67;13.05;;;3.40;78.00;;;;;;5012732;28;20238;-70
2021/12/03 08:48:49;;;;;;;23.35;14.18;;;3.40;77.90;;;;;;5019628;28;20275;-70
2021/12/03 08:51:30;;;;;;;21.45;13.25;;;3.40;77.90;;;;;;5020209;28;20288;-70
2021/12/03 08:56:44;;;;;;;22.15;13.13;;;3.40;78.10;;;;;;4987265;28;20710;-70
2021/12/03 08:59:15;;;;;;;22.05;13.93;;;3.40;78.10;;;;;;5017848;28;20212;-69
2021/12/03 09:01:44;;;;;;;22.90;14.00;;;3.40;78.10;;;;;;5017202;28;20232;-70
2021/12/03 09:04:13;;;;;;;22.00;12.90;;;3.50;78.10;;;;;;5017620;28;20765;-70
2021/12/03 09:06:41;;;;;;;19.90;12.48;;;3.50;78.10;;;;;;5018718;28;20626;-70
2021/12/03 09:09:10;;;;;;;18.92;12.73;;;3.50;78.00;;;;;;5021509;28;20210;-70
2021/12/03 09:11:38;;;;;;;17.88;11.60;;;3.50;78.10;;;;;;5022478;28;20209;-70
2021/12/03 09:14:14;;;;;;;19.90;12.65;;;3.40;78.10;;;;;;5020323;28;20217;-70
2021/12/03 09:16:45;;;;;;;21.17;12.13;;;3.50;78.10;;;;;;5020589;28;20253;-70
2021/12/03 09:19:19;;;;;;;17.23;11.38;;;3.40;78.00;;;;;;5019695;28;20201;-70
2021/12/03 09:21:47;;;;;;;21.23;11.98;;;3.40;78.20;;;;;;5016951;28;20225;-70
2021/12/03 09:24:17;;;;;;;18.77;10.93;;;3.40;78.30;;;;;;5017515;28;20205;-72
2021/12/03 09:26:45;;;;;;;17.77;10.82;;;3.50;78.30;;;;;;5021980;28;20252;-71
2021/12/03 09:29:23;;;;;;;17.20;11.07;;;3.50;78.10;;;;;;5022149;28;20252;-70
2021/12/03 09:31:51;;;;;;;18.58;10.23;;;3.50;78.20;;;;;;5017808;28;20722;-72
2021/12/03 09:34:20;;;;;;;18.13;10.90;;;3.40;78.10;;;;;;5016381;28;20288;-70
2021/12/03 09:36:48;;;;;;;13.57;9.32;;;3.40;78.00;;;;;;5016673;28;20230;-70
2021/12/03 09:39:19;;;;;;;19.42;10.77;;;3.40;78.00;;;;;;5023062;28;20728;-70
2021/12/03 09:41:47;;;;;;;13.40;9.63;;;3.40;78.10;;;;;;5021539;28;20199;-70
2021/12/03 09:44:17;;;;;;;15.07;9.98;;;3.30;78.10;;;;;;5024199;28;20706;-70
2021/12/03 09:46:45;;;;;;;14.10;9.02;;;3.30;78.20;;;;;;5015207;28;20240;-70
2021/12/03 09:49:37;;;;;;;26.83;9.40;;;3.40;78.40;;;;;;5016198;28;20256;-70
2021/12/03 09:52:13;;;;;;;12.88;9.30;;;3.40;78.40;;;;;;5014678;28;20202;-70
2021/12/03 09:54:43;;;;;;;14.15;9.10;;;3.40;78.30;;;;;;5017012;28;20220;-70
2021/12/03 09:57:15;;;;;;;15.93;8.90;;;3.50;78.40;;;;;;5020738;28;20972;-70
2021/12/03 10:02:59;;;;;;;16.33;8.30;;;3.50;78.50;;;;;;4996228;28;20248;-70
2021/12/03 10:13:46;;;;;;;29.08;10.00;;;3.60;78.40;;;;;;5001659;28;20276;-71
2021/12/03 10:16:35;;;;;;;15.98;9.65;;;3.60;78.40;;;;;;5009917;28;20302;-70
2021/12/03 10:19:21;;;;;;;14.30;9.25;;;3.60;78.40;;;;;;5017646;28;20258;-70
2021/12/03 10:22:21;;;;;;;14.73;9.00;;;3.60;78.50;;;;;;5021576;28;20847;-70
2021/12/03 10:25:09;;;;;;;16.52;9.50;;;3.60;78.40;;;;;;5015274;28;20840;-70
2021/12/03 10:30:35;;;;;;;15.90;9.13;;;3.60;78.50;;;;;;5018856;28;20217;-70
2021/12/03 10:33:36;;;;;;;16.63;9.23;;;3.70;78.40;;;;;;5017461;28;20226;-71
2021/12/03 10:36:29;;;;;;;16.88;8.90;;;3.70;78.40;;;;;;5021665;28;20242;-70
2021/12/03 10:39:15;;;;;;;13.93;8.25;;;3.70;78.20;;;;;;5020711;28;20789;-71
2021/12/03 10:41:56;;;;;;;15.75;8.55;;;3.70;78.40;;;;;;5019592;28;20266;-70
2021/12/03 10:44:34;;;;;;;14.45;8.65;;;3.60;78.20;;;;;;5021870;28;20203;-71
2021/12/03 10:47:09;;;;;;;14.32;9.00;;;3.60;78.20;;;;;;5017761;28;20237;-70
2021/12/03 10:52:55;;;;;;;15.45;9.15;;;3.70;78.50;;;;;;5014903;28;20212;-71
2021/12/03 10:58:34;;;;;;;12.68;7.63;;;3.70;78.20;;;;;;5018381;28;20262;-71
2021/12/03 11:18:27;;;;;;;9.20;5.80;;;3.60;77.60;;;;;;5037414;28;20236;-71
2021/12/03 12:44:42;;;;;;;7.78;5.50;;;3.90;77.90;;;;;;5023483;28;20209;-72
2021/12/03 14:00:36;;;;;;;11.05;7.03;;;4.00;78.10;;;;;;5020507;28;20192;-71
2021/12/03 14:40:38;;;;;;;12.10;6.90;;;4.10;78.00;;;;;;5017208;28;20224;-72
2021/12/03 14:51:55;;;;;;;18.30;7.63;;;4.20;77.90;;;;;;5008954;28;20252;-72
2021/12/03 14:54:35;;;;;;;11.25;6.78;;;4.20;77.90;;;;;;5017415;28;20621;-72
2021/12/03 14:57:20;;;;;;;19.02;7.00;;;4.20;77.90;;;;;;5018588;28;20200;-69
2021/12/03 15:00:12;;;;;;;15.63;6.65;;;4.10;77.90;;;;;;5019709;28;20189;-72
2021/12/03 15:02:57;;;;;;;11.95;7.82;;;4.10;77.80;;;;;;5014606;28;20220;-72
2021/12/03 15:05:45;;;;;;;10.93;6.78;;;4.10;77.90;;;;;;5023338;28;20333;-72
2021/12/03 15:08:17;;;;;;;15.15;7.65;;;4.10;77.90;;;;;;5016019;28;20213;-72
2021/12/03 15:11:07;;;;;;;12.50;7.75;;;4.10;78.00;;;;;;5016042;28;20220;-73
2021/12/03 15:22:13;;;;;;;15.93;8.10;;;4.20;77.90;;;;;;5015586;28;20220;-71
2021/12/03 15:30:43;;;;;;;16.73;8.23;;;4.30;78.00;;;;;;4983840;28;20236;-73
2021/12/03 15:33:20;;;;;;;13.10;7.97;;;4.40;78.10;;;;;;5016441;28;20201;-72
2021/12/03 15:35:56;;;;;;;12.50;7.70;;;4.40;78.10;;;;;;5021221;28;20225;-72
2021/12/03 15:52:51;;;;;;;12.32;7.15;;;4.60;78.00;;;;;;5014792;28;20232;-71
2021/12/03 16:03:29;;;;;;;12.05;7.35;;;4.70;77.90;;;;;;5016755;28;20240;-69
2021/12/03 16:04:23;;;;;;;10.07;6.78;;;4.70;77.90;;;;;;5014145;28;20213;-70
2021/12/03 16:07:11;;;;;;;11.52;7.15;;;4.70;77.90;;;;;;5015734;28;20582;-71
2021/12/03 16:09:56;;;;;;;10.18;7.20;;;4.70;77.90;;;;;;5016282;28;20205;-69
2021/12/03 16:12:35;;;;;;;10.82;7.45;;;4.70;77.90;;;;;;5022176;28;20263;-69
2021/12/03 16:15:23;;;;;;;10.80;6.93;;;4.80;77.90;;;;;;5020023;28;20229;-70
2021/12/03 16:18:17;;;;;;;11.07;6.55;;;4.80;77.80;;;;;;5021522;28;20705;-70
2021/12/03 16:23:53;;;;;;;13.70;8.07;;;4.80;77.70;;;;;;4996712;28;20220;-73
2021/12/03 16:26:35;;;;;;;20.08;9.50;;;4.80;77.70;;;;;;5024057;28;20232;-72
2021/12/03 16:51:47;;;;;;;10.52;6.40;;;4.70;77.20;;;;;;5023494;28;20212;-69
2021/12/03 16:54:35;;;;;;;11.90;6.43;;;4.60;77.00;;;;;;5025635;28;20642;-71
2021/12/03 16:57:04;;;;;;;14.05;6.28;;;4.50;77.10;;;;;;5025000;28;20200;-77
2021/12/03 16:59:32;;;;;;;8.63;6.03;;;4.50;77.10;;;;;;5028247;28;20603;-72
2021/12/03 17:02:04;;;;;;;12.65;6.28;;;4.40;77.10;;;;;;5019929;28;20233;-72
2021/12/03 17:04:53;;;;;;;13.95;6.45;;;4.30;76.90;;;;;;5025109;28;20268;-72
2021/12/03 17:13:09;;;;;;;9.13;5.80;;;4.20;77.10;;;;;;5027731;28;20217;-68
2021/12/03 17:30:09;;;;;;;9.43;4.95;;;4.10;76.90;;;;;;5022274;28;20560;-69
2021/12/03 17:49:23;;;;;;;12.00;5.75;;;4.10;77.20;;;;;;5010863;28;20870;-69
2021/12/03 17:52:08;;;;;;;12.73;5.07;;;4.20;77.50;;;;;;5027265;28;20233;-70
2021/12/03 17:54:56;;;;;;;10.32;5.47;;;4.30;77.50;;;;;;5028779;28;20208;-70
2021/12/03 17:57:31;;;;;;;9.63;5.45;;;4.40;77.50;;;;;;5024777;28;20213;-69
2021/12/03 18:00:03;;;;;;;19.70;11.52;;;4.50;77.60;;;;;;5027063;28;20211;-69
2021/12/03 18:02:39;;;;;;;13.23;7.47;;;4.60;77.50;;;;;;5022888;28;20297;-71
2021/12/03 18:05:22;;;;;;;23.00;13.10;;;4.60;77.40;;;;;;5016012;28;20237;-71
2021/12/03 18:07:59;;;;;;;14.65;9.48;;;4.70;77.30;;;;;;5017271;28;20205;-70
2021/12/03 18:44:07;;;;;;;8.02;5.55;;;5.00;77.10;;;;;;5022652;28;20213;-70
2021/12/03 18:52:26;;;;;;;16.92;8.45;;;5.10;77.00;;;;;;5014483;28;20221;-70
2021/12/03 18:55:00;;;;;;;13.85;6.82;;;5.10;77.00;;;;;;5025620;28;20259;-68
2021/12/03 18:57:32;;;;;;;11.25;5.85;;;5.20;77.00;;;;;;5034508;28;20811;-70
2021/12/03 19:00:03;;;;;;;8.82;5.40;;;5.20;76.80;;;;;;5022500;28;20197;-70
2021/12/03 19:02:33;;;;;;;10.32;5.90;;;5.20;76.80;;;;;;5022981;28;20228;-71
2021/12/03 19:05:05;;;;;;;10.57;5.45;;;5.20;76.80;;;;;;5022996;28;20237;-70
2021/12/03 19:07:40;;;;;;;8.80;4.97;;;5.20;76.80;;;;;;5018821;28;20193;-70
2021/12/03 19:10:14;;;;;;;6.85;4.50;;;5.20;76.80;;;;;;5017227;28;21551;-70
2021/12/03 19:12:46;;;;;;;12.82;6.63;;;5.20;76.40;;;;;;5014983;28;20968;-70
2021/12/03 19:15:14;;;;;;;12.23;6.45;;;5.30;76.50;;;;;;5016183;28;20247;-70
2021/12/03 19:17:44;;;;;;;12.52;6.68;;;5.20;76.50;;;;;;5011990;28;20584;-70
2021/12/03 19:20:16;;;;;;;10.07;6.45;;;5.20;76.40;;;;;;5014908;28;20197;-70
2021/12/03 19:22:44;;;;;;;10.75;4.90;;;5.20;76.00;;;;;;5014645;28;20551;-71